FW4287 Weather Reports


time (UTC)temp
F
wind
direction
speed
knots
gust
knots
rain 1hr
in
rain 24hr
in
rain mn
in
humidity
%
barometer
mb
20211017150037 37 186 0.9 3.5 0.00 0.00 0.00 99 1006.5
20211017144605 37 150 0.0 0.0 0.00 0.00 0.00 99 1006.4
20211017143043 37 138 0.0 0.0 0.00 0.00 0.00 99 1006.4
20211017143041 37 138 0.0 2.6 0.00 0.00 0.00 99 1006.6
20211017141531 37 103 0.0 0.0 0.00 0.00 0.00 99 1006.4
20211017140041 37 79 0.9 0.0 0.00 0.00 0.00 99 1006.4
20211017140039 37 79 0.9 3.5 0.00 0.00 0.00 99 1006.7
20211017134531 36 185 0.0 0.0 0.00 0.00 0.00 99 1006.4
20211017133042 36 148 0.9 0.0 0.00 0.00 0.00 99 1006.4
20211017131535 36 180 0.0 0.0 0.00 0.00 0.00 99 1006.4
20211017131533 36 180 0.0 0.9 0.00 0.00 0.00 99 1006.7
20211017130114 36 158 0.0 0.0 0.00 0.00 0.00 99 1006.4
20211017130110 36 158 0.0 2.6 0.00 0.00 0.00 99 1006.7
20211017124537 35 146 0.9 0.0 0.00 0.00 0.00 99 1006.8
20211017124533 35 146 0.9 3.5 0.00 0.00 0.00 99 1006.8
20211017123149 35 149 0.9 0.0 0.00 0.00 0.00 99 1006.8
20211017123147 35 173 0.0 3.5 0.00 0.00 0.00 99 1007.1
20211017121612 35 173 0.0 3.5 0.00 0.00 0.00 99 1007.1
20211017121610 35 173 0.0 0.0 0.00 0.00 0.00 99 1007.1
20211017120042 35 167 0.0 0.0 0.00 0.00 0.00 99 1007.1
20211017120040 35 167 0.0 2.6 0.00 0.00 0.00 99 1007.3
20211017114541 35 312 0.0 1.7 0.00 0.00 0.00 98 1007.6
20211017114530 35 226 0.0 2.6 0.00 0.00 0.00 98 1007.6
20211017113039 35 344 0.0 0.0 0.00 0.00 0.00 98 1007.5
20211017111535 35 112 0.0 0.0 0.00 0.00 0.00 98 1007.8
20211017110033 35 338 0.0 0.0 0.00 0.00 0.00 98 1007.8
20211017104609 35 315 0.0 0.0 0.00 0.00 0.00 98 1008.3
20211017103045 35 315 0.0 0.0 0.00 0.00 0.00 98 1008.3
20211017101536 35 293 0.0 0.0 0.00 0.00 0.00 98 1008.5
20211017101534 35 293 0.0 3.5 0.00 0.00 0.00 98 1008.6
20211017100041 35 161 0.0 0.0 0.00 0.00 0.00 98 1008.5
20211017094529 35 157 0.0 0.0 0.00 0.00 0.00 98 1008.9
20211017093105 35 157 0.0 0.0 0.00 0.00 0.00 98 1008.9
20211017091530 35 180 0.0 0.0 0.00 0.00 0.00 98 1009.3
20211017090045 35 180 0.0 0.0 0.00 0.00 0.00 98 1009.3
20211017084608 35 180 0.0 0.0 0.00 0.00 0.00 98 1009.3
20211017084604 35 180 0.0 0.0 0.00 0.00 0.00 98 1009.4
20211017083042 35 180 0.0 0.0 0.00 0.00 0.00 98 1009.6
20211017083040 35 180 0.0 0.0 0.00 0.00 0.00 98 1009.7
20211017081530 35 180 0.0 0.0 0.00 0.00 0.00 97 1009.6
20211017080049 36 180 0.0 0.0 0.00 0.00 0.00 97 1009.6
20211017080047 36 180 0.0 2.6 0.00 0.00 0.00 97 1009.9
20211017074534 36 180 0.0 0.0 0.00 0.00 0.00 97 1010.0
20211017074532 36 180 0.0 0.0 0.00 0.00 0.00 97 1010.1
20211017073040 36 161 0.0 0.0 0.00 0.00 0.00 97 1010.0
20211017073037 36 161 0.0 1.7 0.00 0.00 0.00 97 1010.2
20211017071534 36 157 0.0 0.0 0.00 0.00 0.00 97 1010.3
20211017071531 37 157 0.0 0.9 0.00 0.00 0.00 97 1010.6
20211017070045 37 157 0.0 0.0 0.00 0.00 0.00 97 1010.3
20211017064530 36 157 0.0 0.9 0.00 0.00 0.00 97 1010.6
20211017063039 37 144 0.0 0.0 0.00 0.00 0.00 97 1010.7
20211017063037 37 144 0.0 1.7 0.00 0.00 0.00 97 1010.8
20211017061534 38 135 0.0 0.0 0.00 0.00 0.00 96 1010.7
20211017060105 37 180 0.0 0.9 0.00 0.00 0.00 96 1011.0
20211017054611 38 180 0.0 1.7 0.00 0.00 0.00 96 1011.1
20211017053037 38 180 0.0 0.0 0.00 0.00 0.00 96 1011.0
20211017051534 39 180 0.0 0.0 0.00 0.00 0.00 96 1011.0
20211017050155 39 180 0.0 0.9 0.00 0.00 0.00 95 1011.3
20211017050152 39 180 0.0 0.0 0.00 0.00 0.00 95 1011.0
20211017044532 40 180 0.0 0.0 0.00 0.00 0.00 95 1011.4
20211017043041 40 180 0.0 0.0 0.00 0.00 0.00 95 1011.4
20211017043038 40 180 0.0 0.0 0.00 0.00 0.00 95 1011.5
20211017041533 41 180 0.0 0.0 0.00 0.00 0.00 95 1011.4
20211017041531 41 180 0.0 0.0 0.00 0.00 0.00 94 1011.7
20211017040106 41 180 0.0 0.0 0.00 0.00 0.00 94 1011.4
20211017040104 41 180 0.0 0.0 0.00 0.00 0.00 94 1011.7
20211017034534 42 180 0.0 0.0 0.00 0.00 0.00 94 1011.7
20211017034532 43 147 0.0 1.7 0.00 0.00 0.00 94 1012.1
20211017033109 43 147 0.0 0.0 0.00 0.00 0.00 94 1011.7
20211017033105 44 79 0.0 1.7 0.00 0.00 0.00 93 1012.2
20211017031531 44 79 0.0 0.0 0.00 0.00 0.00 93 1012.1
20211017031529 45 17 0.0 1.7 0.00 0.00 0.00 92 1012.3
20211017030108 45 17 0.0 0.0 0.00 0.00 0.00 92 1012.1
20211017024534 46 33 0.0 0.0 0.00 0.00 0.00 92 1012.1
20211017023035 45 106 0.9 0.0 0.00 0.00 0.00 91 1012.4
20211017021534 46 109 0.0 0.0 0.00 0.00 0.00 89 1012.4
20211017021532 46 109 0.0 2.6 0.00 0.00 0.00 89 1012.7
20211017020043 47 26 0.0 0.0 0.00 0.00 0.00 88 1012.4
20211017020041 47 26 0.0 2.6 0.00 0.00 0.00 88 1012.7
20211017014530 49 146 0.0 2.6 0.00 0.00 0.00 86 1012.8
20211017013055 51 157 0.0 0.0 0.00 0.00 0.00 81 1012.8
20211017011534 55 180 0.0 0.0 0.00 0.00 0.00 76 1012.8
20211017011532 55 180 0.0 0.0 0.00 0.00 0.00 76 1013.1
20211017010053 60 180 0.0 0.0 0.00 0.00 0.00 70 1013.2
20211017010050 60 180 0.0 0.0 0.00 0.00 0.00 70 1013.3
20211017004529 63 126 0.0 0.0 0.00 0.00 0.00 64 1013.2
20211017003041 65 50 0.0 0.0 0.00 0.00 0.00 58 1013.2
20211017003039 65 50 0.0 2.6 0.00 0.00 0.00 58 1013.5
20211017001534 66 28 0.0 0.0 0.00 0.00 0.00 56 1013.5
20211017001530 65 34 0.9 4.3 0.00 0.00 0.00 55 1014.0
20211017000047 65 34 0.9 0.0 0.00 0.00 0.00 55 1013.9
20211017000045 65 34 0.9 4.3 0.00 0.00 0.00 55 1014.0
20211016234610 65 45 1.7 0.0 0.00 0.00 0.00 56 1014.2
20211016234608 63 16 0.9 3.5 0.00 0.00 0.00 58 1014.4
20211016233039 63 16 0.9 0.0 0.00 0.00 0.00 58 1014.2
20211016233037 63 16 0.9 3.5 0.00 0.00 0.00 58 1014.4
20211016231533 63 8 1.7 0.0 0.00 0.00 0.00 56 1014.6
20211016230051 64 19 2.6 0.0 0.00 0.00 0.00 55 1014.6
20211016230047 64 19 2.6 5.2 0.00 0.00 0.00 55 1014.8
20211016224607 64 298 0.9 5.2 0.00 0.00 0.00 53 1015.0
20211016223037 64 301 2.6 0.0 0.00 0.00 0.00 53 1014.9
20211016221536 64 302 3.5 0.0 0.00 0.00 0.00 54 1015.3
20211016221534 64 302 3.5 6.1 0.00 0.00 0.00 54 1015.4
20211016220038 63 284 2.6 0.0 0.00 0.00 0.00 55 1015.6
20211016214533 63 278 2.6 0.0 0.00 0.00 0.00 57 1015.6
20211016213034 62 274 3.5 6.1 0.00 0.00 0.00 58 1016.1
20211016211605 63 269 3.5 0.0 0.00 0.00 0.00 59 1016.0
20211016210106 62 287 2.6 6.1 0.00 0.00 0.00 61 1016.5
20211016210104 62 287 2.6 0.0 0.00 0.00 0.00 61 1016.3
20211016204532 61 259 1.7 0.0 0.00 0.00 0.00 63 1016.7
20211016203036 61 255 1.7 0.0 0.00 0.00 0.00 65 1016.7
20211016203034 61 255 1.7 5.2 0.00 0.00 0.00 65 1016.9
20211016201533 60 271 1.7 0.0 0.00 0.00 0.00 67 1017.0
20211016201530 60 271 1.7 5.2 0.00 0.00 0.00 67 1017.2
20211016200043 59 239 1.7 0.0 0.00 0.00 0.00 68 1017.4
20211016200041 59 239 1.7 7.0 0.00 0.00 0.00 68 1017.5
20211016194532 59 315 1.7 0.0 0.00 0.00 0.00 69 1017.8
20211016193038 58 225 1.7 0.0 0.00 0.00 0.00 71 1018.1
20211016193034 58 225 1.7 6.1 0.00 0.00 0.00 71 1018.1
20211016191533 58 236 2.6 0.0 0.00 0.00 0.00 73 1018.1
20211016191531 58 236 2.6 5.2 0.00 0.00 0.00 73 1018.3
20211016190043 58 178 1.7 0.0 0.00 0.00 0.00 77 1018.1
20211016190041 58 178 1.7 3.5 0.00 0.00 0.00 77 1018.4
20211016184538 56 224 0.9 0.0 0.00 0.00 0.00 80 1018.5
20211016184533 56 224 0.9 3.5 0.00 0.00 0.00 80 1018.6
20211016183035 55 160 0.0 0.0 0.00 0.00 0.00 83 1018.5
20211016183032 55 160 0.0 3.5 0.00 0.00 0.00 83 1018.7
20211016181534 55 100 0.0 0.0 0.00 0.00 0.00 87 1018.8
20211016181531 53 40 0.0 3.5 0.00 0.00 0.00 88 1018.9
20211016180043 53 40 0.0 0.0 0.00 0.00 0.00 88 1018.8
20211016174534 52 49 1.7 4.3 0.00 0.00 0.00 92 1019.0
20211016173038 50 45 0.0 0.0 0.00 0.00 0.00 96 1018.8
20211016171607 49 45 0.0 0.0 0.00 0.00 0.00 98 1018.8
20211016171604 48 23 0.9 2.6 0.00 0.00 0.00 99 1019.1
20211016170042 48 23 0.9 0.0 0.00 0.00 0.00 99 1018.8
20211016170040 48 23 0.9 2.6 0.00 0.00 0.00 99 1019.1
20211016164535 46 292 0.0 0.0 0.00 0.00 0.00 100 1019.2
20211016164533 46 292 0.0 0.0 0.00 0.00 0.00 100 1019.2
20211016163108 43 283 0.0 0.0 0.00 0.00 0.00 100 1018.8
20211016163105 43 283 0.0 1.7 0.00 0.00 0.00 100 1019.1
20211016161528 39 157 0.0 0.0 0.00 0.00 0.00 99 1019.2
20211016160047 36 157 0.0 0.0 0.00 0.00 0.00 99 1019.2
20211016160045 36 157 0.0 0.0 0.00 0.00 0.00 99 1019.2
20211016154538 34 192 0.0 0.0 0.00 0.00 0.00 99 1018.8
20211016154533 34 192 0.0 2.6 0.00 0.00 0.00 99 1019.0
20211016153036 33 160 0.9 0.0 0.00 0.00 0.00 99 1018.8
20211016153033 33 160 0.9 2.6 0.00 0.00 0.00 99 1019.1
20211016151529 32 157 0.0 0.0 0.00 0.00 0.00 99 1019.2
20211016151527 32 157 0.0 0.0 0.00 0.00 0.00 99 1019.2